Terminal Aerodrome Forecast
Issued by NWS

Home | Current Version | Previous Version | Text Only | Print | Product List | Glossary On
Versions: 1 2 3 4 5 6 7 8 9 10 11 12 13 14 15 16 17
000
FTUS44 KMAF 212300
TAFPEQ
TAF
KPEQ 212335Z 2200/2224 10006KT P6SM SCT200
     FM220600 12005KT P6SM OVC015
      TEMPO 2211/2215 4SM BR OVC003
     FM221900 29008KT P6SM SCT050=

USA.gov is the U.S. government's official web portal to all federal, state and local government web resources and services.